createdAt,value
2023-03-08T00:00:10.254Z,5.50
2023-03-08T00:03:15.515Z,5.50
2023-03-08T00:06:18.732Z,5.60
2023-03-08T00:09:21.889Z,5.60
2023-03-08T00:12:25.158Z,5.50
2023-03-08T00:15:29.728Z,5.50
2023-03-08T00:18:33.478Z,5.50
2023-03-08T00:21:36.667Z,5.50
2023-03-08T00:24:39.927Z,5.50
2023-03-08T00:27:43.273Z,5.50
2023-03-08T00:30:55.597Z,5.50
2023-03-08T00:33:58.764Z,5.60
2023-03-08T00:37:01.948Z,5.70
2023-03-08T00:40:06.121Z,5.70
2023-03-08T00:43:09.281Z,5.70
2023-03-08T00:46:14.570Z,5.80
2023-03-08T00:49:17.770Z,5.80
2023-03-08T00:52:20.974Z,5.80
2023-03-08T00:55:24.163Z,5.90
2023-03-08T00:58:29.950Z,5.90
2023-03-08T01:01:34.648Z,5.90
2023-03-08T01:04:37.812Z,5.90
2023-03-08T01:07:41.171Z,5.90
2023-03-08T01:10:48.658Z,5.90
2023-03-08T01:13:52.812Z,5.80
2023-03-08T01:16:57.402Z,5.80
2023-03-08T01:20:00.544Z,5.80
2023-03-08T01:23:03.719Z,5.80
2023-03-08T01:26:08.452Z,5.70
2023-03-08T01:29:11.609Z,5.70
2023-03-08T01:32:16.274Z,5.70
2023-03-08T01:35:19.600Z,5.70
2023-03-08T01:38:22.734Z,5.70
2023-03-08T01:41:27.874Z,5.60
2023-03-08T01:44:49.694Z,5.60
2023-03-08T01:47:54.250Z,5.60
2023-03-08T01:50:57.517Z,5.60
2023-03-08T01:54:02.258Z,5.70
2023-03-08T01:57:09.618Z,5.70
2023-03-08T02:00:15.207Z,5.80
2023-03-08T02:03:20.187Z,5.90
2023-03-08T02:06:23.692Z,5.90
2023-03-08T02:09:27.055Z,5.90
2023-03-08T02:12:30.594Z,6.00
2023-03-08T02:15:33.830Z,6.00
2023-03-08T02:18:38.348Z,6.00
2023-03-08T02:21:42.136Z,6.10
2023-03-08T02:24:46.662Z,6.10
2023-03-08T02:27:50.807Z,6.20
2023-03-08T02:30:54.534Z,6.20
2023-03-08T02:33:57.682Z,6.10
2023-03-08T02:37:00.859Z,6.10
2023-03-08T02:40:06.266Z,6.10
2023-03-08T02:43:09.533Z,6.10
2023-03-08T02:46:13.223Z,6.00
2023-03-08T02:49:16.339Z,6.00
2023-03-08T02:52:19.472Z,6.00
2023-03-08T02:55:25.316Z,6.00
2023-03-08T02:58:28.477Z,6.00
2023-03-08T03:01:31.679Z,6.00
2023-03-08T03:04:35.531Z,5.90
2023-03-08T03:07:39.193Z,5.80
2023-03-08T03:10:43.685Z,5.60
2023-03-08T03:13:47.621Z,5.50
2023-03-08T03:16:50.784Z,5.50
2023-03-08T03:19:53.934Z,5.50
2023-03-08T03:22:57.128Z,5.50
2023-03-08T03:26:07.436Z,5.60
2023-03-08T03:29:10.983Z,5.50
2023-03-08T03:32:14.470Z,5.50
2023-03-08T03:35:17.729Z,5.40
2023-03-08T03:38:20.881Z,5.50
2023-03-08T03:41:25.547Z,5.50
2023-03-08T03:44:31.129Z,5.60
2023-03-08T03:47:34.266Z,5.60
2023-03-08T03:50:37.363Z,5.60
2023-03-08T03:53:40.985Z,5.60
2023-03-08T03:56:45.524Z,5.50
2023-03-08T03:59:48.645Z,5.40
2023-03-08T04:02:51.848Z,5.30
2023-03-08T04:05:55.576Z,5.10
2023-03-08T04:09:00.438Z,4.90
2023-03-08T04:12:05.985Z,4.80
2023-03-08T04:15:10.149Z,5.00
2023-03-08T04:18:13.331Z,4.90
2023-03-08T04:21:16.629Z,5.00
2023-03-08T04:24:19.833Z,4.90
2023-03-08T04:27:24.378Z,4.90
2023-03-08T04:30:27.549Z,4.80
2023-03-08T04:33:30.767Z,4.70
2023-03-08T04:36:33.965Z,4.70
2023-03-08T04:39:37.116Z,4.60
2023-03-08T04:42:42.010Z,4.60
2023-03-08T04:45:45.160Z,4.50
2023-03-08T04:48:48.525Z,4.50
2023-03-08T04:51:51.745Z,4.50
2023-03-08T04:54:55.329Z,4.40
2023-03-08T04:57:59.908Z,4.50
2023-03-08T05:01:10.315Z,4.50
2023-03-08T05:04:13.573Z,4.50
2023-03-08T05:07:16.738Z,4.40
2023-03-08T05:10:20.031Z,4.40
2023-03-08T05:13:24.569Z,4.40
2023-03-08T05:16:28.281Z,4.40
2023-03-08T05:19:31.651Z,4.30
2023-03-08T05:22:45.124Z,4.20
2023-03-08T05:25:59.601Z,4.20
2023-03-08T05:29:06.455Z,4.20
2023-03-08T05:32:12.493Z,4.20
2023-03-08T05:35:15.891Z,4.30
2023-03-08T05:38:19.094Z,4.30
2023-03-08T05:41:22.715Z,4.30
2023-03-08T05:44:27.385Z,4.40
2023-03-08T05:47:30.596Z,4.40
2023-03-08T05:50:33.759Z,4.40
2023-03-08T05:53:37.372Z,4.50
2023-03-08T05:56:40.546Z,4.70
2023-03-08T05:59:45.139Z,4.70
2023-03-08T06:02:48.360Z,4.80
2023-03-08T06:05:51.550Z,4.90
2023-03-08T06:08:56.352Z,5.00
2023-03-08T06:11:59.557Z,5.10
2023-03-08T06:15:04.225Z,5.20
2023-03-08T06:18:07.465Z,5.40
2023-03-08T06:21:13.761Z,5.50
2023-03-08T06:24:16.971Z,5.50
2023-03-08T06:27:20.148Z,5.60
2023-03-08T06:30:24.796Z,5.70
2023-03-08T06:33:30.347Z,5.90
2023-03-08T06:36:33.781Z,6.10
2023-03-08T06:39:37.022Z,6.20
2023-03-08T06:42:41.810Z,6.40
2023-03-08T06:45:46.725Z,6.50
2023-03-08T06:48:50.466Z,6.60
2023-03-08T06:51:53.663Z,6.80
2023-03-08T06:54:56.861Z,6.90
2023-03-08T06:58:00.000Z,7.10
2023-03-08T07:01:05.808Z,7.50
2023-03-08T07:04:09.427Z,7.60
2023-03-08T07:07:12.618Z,7.70
2023-03-08T07:10:19.635Z,7.70
2023-03-08T07:13:23.850Z,7.80
2023-03-08T07:16:29.281Z,7.90
2023-03-08T07:19:32.922Z,8.10
2023-03-08T07:22:36.166Z,8.30
2023-03-08T07:25:40.213Z,8.50
2023-03-08T07:28:43.412Z,8.70
2023-03-08T07:31:48.003Z,8.80
2023-03-08T07:34:51.201Z,8.80
2023-03-08T07:37:54.618Z,8.90
2023-03-08T07:40:58.685Z,9.00
2023-03-08T07:44:02.558Z,9.10
2023-03-08T07:47:08.083Z,9.30
2023-03-08T07:50:12.630Z,9.40
2023-03-08T07:53:16.268Z,9.80
2023-03-08T07:56:19.581Z,10.70
2023-03-08T07:59:22.868Z,11.30
2023-03-08T08:02:27.434Z,12.50
2023-03-08T08:05:30.689Z,13.40
2023-03-08T08:08:34.519Z,13.90
2023-03-08T08:11:38.877Z,14.10
2023-03-08T08:14:42.084Z,14.00
2023-03-08T08:17:46.644Z,13.70
2023-03-08T08:20:49.809Z,13.60
2023-03-08T08:23:53.826Z,13.60
2023-03-08T08:26:57.004Z,13.60
2023-03-08T08:30:00.464Z,13.70
2023-03-08T08:33:06.275Z,13.80
2023-03-08T08:36:11.215Z,13.80
2023-03-08T08:39:14.454Z,13.90
2023-03-08T08:42:17.809Z,13.90
2023-03-08T08:45:21.013Z,13.80
2023-03-08T08:48:26.080Z,14.00
2023-03-08T08:51:29.702Z,14.30
2023-03-08T08:54:33.898Z,14.70
2023-03-08T08:57:37.060Z,15.00
2023-03-08T09:00:40.518Z,15.10
2023-03-08T09:03:45.258Z,15.10
2023-03-08T09:06:48.561Z,15.10
2023-03-08T09:09:51.848Z,14.90
2023-03-08T09:12:56.578Z,14.70
2023-03-08T09:16:00.928Z,14.50
2023-03-08T09:19:06.614Z,14.40
2023-03-08T09:22:10.763Z,14.20
2023-03-08T09:25:14.693Z,13.90
2023-03-08T09:28:17.857Z,13.70
2023-03-08T09:31:21.097Z,13.40
2023-03-08T09:34:25.650Z,13.20
2023-03-08T09:37:29.187Z,13.10
2023-03-08T09:40:40.595Z,13.10
2023-03-08T09:43:50.586Z,13.10
2023-03-08T09:47:00.940Z,13.10
2023-03-08T09:50:18.467Z,13.10
2023-03-08T09:53:27.835Z,13.00
2023-03-08T09:56:34.389Z,12.90
2023-03-08T09:59:42.707Z,12.70
2023-03-08T10:02:55.822Z,12.60
2023-03-08T10:06:07.331Z,12.50
2023-03-08T10:09:28.168Z,12.30
2023-03-08T10:12:36.852Z,12.20
2023-03-08T10:15:44.208Z,12.20
2023-03-08T10:18:51.944Z,12.30
2023-03-08T10:22:01.104Z,12.30
2023-03-08T10:25:17.148Z,12.10
2023-03-08T10:28:22.554Z,12.20
2023-03-08T10:31:27.399Z,12.20
2023-03-08T10:34:32.979Z,12.00
2023-03-08T10:37:37.609Z,12.00
2023-03-08T10:40:40.892Z,12.00
2023-03-08T10:43:48.426Z,12.10
2023-03-08T10:46:51.870Z,12.20
2023-03-08T10:50:15.445Z,12.30
2023-03-08T10:53:22.863Z,12.40
2023-03-08T10:56:30.295Z,12.70
2023-03-08T10:59:35.893Z,13.00
2023-03-08T11:02:39.250Z,13.10
2023-03-08T11:05:53.125Z,12.90
2023-03-08T11:08:59.342Z,13.20
2023-03-08T11:12:02.611Z,14.60
2023-03-08T11:15:14.775Z,15.80
2023-03-08T11:18:29.443Z,16.20
2023-03-08T11:21:45.804Z,16.60
2023-03-08T11:25:14.420Z,17.30
2023-03-08T11:28:31.826Z,17.30
2023-03-08T11:31:38.718Z,19.80
2023-03-08T11:34:55.537Z,20.20
2023-03-08T11:38:05.017Z,20.20
2023-03-08T11:41:20.753Z,21.20
2023-03-08T11:44:39.400Z,22.50
2023-03-08T11:47:58.113Z,23.60
2023-03-08T11:51:07.665Z,25.90
2023-03-08T11:54:19.422Z,27.90
2023-03-08T11:57:26.914Z,30.20
2023-03-08T12:00:33.335Z,33.50
2023-03-08T12:03:41.396Z,34.00
2023-03-08T12:06:46.676Z,35.10
2023-03-08T12:09:57.820Z,36.70
2023-03-08T12:13:12.901Z,38.30
2023-03-08T12:16:20.764Z,37.90
2023-03-08T12:19:32.338Z,38.30
2023-03-08T12:22:46.821Z,39.60
2023-03-08T12:25:53.021Z,37.90
2023-03-08T12:29:01.314Z,37.70
2023-03-08T12:32:06.155Z,38.40
2023-03-08T12:35:26.871Z,40.10
2023-03-08T12:38:38.432Z,40.10
2023-03-08T12:41:41.952Z,37.90
2023-03-08T12:44:46.571Z,37.70
2023-03-08T12:47:58.316Z,37.50
2023-03-08T12:51:05.593Z,36.40
2023-03-08T12:54:23.217Z,34.60
2023-03-08T12:57:30.511Z,33.30
2023-03-08T13:00:37.608Z,31.90
2023-03-08T13:03:43.043Z,32.50
2023-03-08T13:07:11.998Z,32.50
2023-03-08T13:10:23.007Z,31.70
2023-03-08T13:13:38.972Z,34.50
2023-03-08T13:16:44.176Z,34.80
2023-03-08T13:19:49.799Z,36.20
2023-03-08T13:23:05.543Z,34.50
2023-03-08T13:26:49.036Z,35.40
2023-03-08T13:29:54.997Z,36.40
2023-03-08T13:33:00.432Z,37.60
2023-03-08T13:36:07.291Z,37.30
2023-03-08T13:39:20.589Z,37.80
2023-03-08T13:42:25.831Z,38.20
2023-03-08T13:45:29.531Z,37.70
2023-03-08T13:48:36.652Z,37.40
2023-03-08T13:51:39.935Z,34.30
2023-03-08T13:54:47.167Z,31.00
2023-03-08T13:57:53.618Z,28.30
2023-03-08T14:01:04.298Z,26.60
2023-03-08T14:04:17.872Z,24.70
2023-03-08T14:07:24.562Z,22.90
2023-03-08T14:10:35.833Z,21.70
2023-03-08T14:13:41.479Z,20.90
2023-03-08T14:16:44.857Z,20.00
2023-03-08T14:19:55.236Z,19.10
2023-03-08T14:22:58.697Z,18.40
2023-03-08T14:26:01.854Z,18.10
2023-03-08T14:29:15.346Z,17.50
2023-03-08T14:32:31.054Z,17.30
2023-03-08T14:35:38.568Z,17.10
2023-03-08T14:38:41.904Z,16.60
2023-03-08T14:41:45.244Z,16.30
2023-03-08T14:44:53.641Z,15.90
2023-03-08T14:47:58.861Z,15.90
2023-03-08T14:51:05.122Z,15.70
2023-03-08T14:54:23.892Z,15.60
2023-03-08T14:57:28.771Z,15.80
2023-03-08T15:00:32.812Z,15.70
2023-03-08T15:03:36.155Z,15.60
2023-03-08T15:06:41.198Z,15.50
2023-03-08T15:09:44.948Z,15.30
2023-03-08T15:12:48.136Z,15.10
2023-03-08T15:15:51.624Z,15.10
2023-03-08T15:18:54.843Z,14.80
2023-03-08T15:22:01.523Z,14.80
2023-03-08T15:25:08.403Z,14.70
2023-03-08T15:28:15.531Z,14.70
2023-03-08T15:31:18.751Z,14.70
2023-03-08T15:34:22.526Z,14.80
2023-03-08T15:37:27.065Z,14.80
2023-03-08T15:40:31.605Z,14.80
2023-03-08T15:43:34.780Z,14.70
2023-03-08T15:46:38.489Z,14.60
2023-03-08T15:49:41.796Z,14.60
2023-03-08T15:52:46.739Z,14.50
2023-03-08T15:55:50.010Z,14.60
2023-03-08T15:58:53.308Z,14.50
2023-03-08T16:01:56.478Z,14.50
2023-03-08T16:04:59.787Z,14.50
2023-03-08T16:08:05.059Z,14.40
2023-03-08T16:11:09.110Z,14.40
2023-03-08T16:14:17.743Z,14.30
2023-03-08T16:17:20.955Z,14.30
2023-03-08T16:20:24.710Z,14.10
2023-03-08T16:23:29.285Z,14.10
2023-03-08T16:26:32.706Z,13.90
2023-03-08T16:29:36.176Z,13.80
2023-03-08T16:32:40.817Z,13.80
2023-03-08T16:35:50.097Z,13.80
2023-03-08T16:38:56.615Z,13.70
2023-03-08T16:42:02.470Z,13.70
2023-03-08T16:45:07.103Z,13.70
2023-03-08T16:48:10.585Z,13.60
2023-03-08T16:51:16.356Z,13.60
2023-03-08T16:54:21.133Z,13.40
2023-03-08T16:57:24.504Z,13.30
2023-03-08T17:00:28.780Z,13.20
2023-03-08T17:03:32.373Z,13.10
2023-03-08T17:06:35.936Z,13.00
2023-03-08T17:09:42.089Z,13.00
2023-03-08T17:12:45.564Z,13.00
2023-03-08T17:15:48.996Z,12.80
2023-03-08T17:18:53.030Z,12.70
2023-03-08T17:21:56.213Z,12.60
2023-03-08T17:25:00.933Z,12.60
2023-03-08T17:28:04.313Z,12.60
2023-03-08T17:31:10.194Z,12.60
2023-03-08T17:34:14.424Z,12.60
2023-03-08T17:37:18.862Z,12.50
2023-03-08T17:40:24.682Z,12.40
2023-03-08T17:43:28.221Z,12.40
2023-03-08T17:46:32.286Z,12.50
2023-03-08T17:49:35.630Z,12.40
2023-03-08T17:52:39.509Z,12.40
2023-03-08T17:55:45.299Z,12.40
2023-03-08T17:58:49.089Z,12.30
2023-03-08T18:01:54.199Z,12.30
2023-03-08T18:04:57.718Z,12.40
2023-03-08T18:08:00.909Z,12.40
2023-03-08T18:11:06.463Z,12.40
2023-03-08T18:14:12.290Z,12.40
2023-03-08T18:17:15.985Z,12.50
2023-03-08T18:20:21.078Z,12.40
2023-03-08T18:23:25.270Z,12.40
2023-03-08T18:26:30.803Z,12.30
2023-03-08T18:29:36.844Z,12.20
2023-03-08T18:32:41.199Z,12.20
2023-03-08T18:35:46.330Z,12.10
2023-03-08T18:38:52.220Z,12.00
2023-03-08T18:42:00.618Z,11.90
2023-03-08T18:45:07.140Z,11.90
2023-03-08T18:48:11.676Z,11.80
2023-03-08T18:51:16.674Z,11.80
2023-03-08T18:54:22.854Z,11.60
2023-03-08T18:57:34.223Z,11.60
2023-03-08T19:00:42.409Z,11.50
2023-03-08T19:03:47.899Z,11.50
2023-03-08T19:06:52.693Z,11.40
2023-03-08T19:09:58.281Z,11.40
2023-03-08T19:13:03.818Z,11.30
2023-03-08T19:16:18.045Z,11.20
2023-03-08T19:19:22.688Z,11.20
2023-03-08T19:22:28.365Z,11.20
2023-03-08T19:25:33.666Z,11.10
2023-03-08T19:28:39.587Z,11.00
2023-03-08T19:31:46.447Z,11.00
2023-03-08T19:34:54.657Z,10.90
2023-03-08T19:37:59.673Z,10.90
2023-03-08T19:41:05.078Z,10.90
2023-03-08T19:44:13.403Z,10.90
2023-03-08T19:47:20.755Z,10.90
2023-03-08T19:50:26.034Z,10.90
2023-03-08T19:53:30.525Z,10.90
2023-03-08T19:56:37.470Z,10.90
2023-03-08T19:59:43.873Z,10.90
2023-03-08T20:02:49.142Z,10.90
2023-03-08T20:05:54.196Z,10.90
2023-03-08T20:09:01.182Z,10.90
2023-03-08T20:12:06.599Z,10.90
2023-03-08T20:15:17.235Z,10.90
2023-03-08T20:18:22.395Z,10.90
2023-03-08T20:21:29.937Z,10.90
2023-03-08T20:24:35.996Z,10.90
2023-03-08T20:27:41.621Z,10.90
2023-03-08T20:30:50.237Z,10.90
2023-03-08T20:33:55.970Z,10.90
2023-03-08T20:37:00.995Z,10.90
2023-03-08T20:40:10.391Z,10.80
2023-03-08T20:43:15.490Z,10.80
2023-03-08T20:46:23.961Z,10.90
2023-03-08T20:49:30.203Z,10.80
2023-03-08T20:52:38.791Z,10.70
2023-03-08T20:55:44.292Z,10.80
2023-03-08T20:58:49.273Z,10.90
2023-03-08T21:01:56.711Z,10.90
2023-03-08T21:05:03.721Z,10.80
2023-03-08T21:08:12.748Z,10.80
2023-03-08T21:11:17.980Z,10.80
2023-03-08T21:14:22.613Z,10.70
2023-03-08T21:17:30.384Z,10.80
2023-03-08T21:20:39.438Z,10.80
2023-03-08T21:23:46.407Z,10.80
2023-03-08T21:26:52.545Z,10.70
2023-03-08T21:30:01.157Z,10.70
2023-03-08T21:33:07.189Z,10.70
2023-03-08T21:36:11.776Z,10.70
2023-03-08T21:39:19.213Z,10.70
2023-03-08T21:42:26.100Z,10.80
2023-03-08T21:45:29.947Z,10.80
2023-03-08T21:48:35.749Z,10.90
2023-03-08T21:51:38.909Z,10.90
2023-03-08T21:54:43.655Z,10.90
2023-03-08T21:57:47.469Z,11.00
2023-03-08T22:00:50.938Z,11.00
2023-03-08T22:03:56.519Z,11.00
2023-03-08T22:06:59.824Z,11.00
2023-03-08T22:10:03.479Z,11.00
2023-03-08T22:13:06.634Z,11.00
2023-03-08T22:16:10.363Z,11.00
2023-03-08T22:19:14.964Z,11.00
2023-03-08T22:22:18.389Z,11.10
2023-03-08T22:25:21.719Z,11.30
2023-03-08T22:28:24.945Z,11.40
2023-03-08T22:31:30.173Z,11.50
2023-03-08T22:34:35.120Z,11.50
2023-03-08T22:37:38.852Z,11.50
2023-03-08T22:40:42.488Z,11.50
2023-03-08T22:43:46.353Z,11.60
2023-03-08T22:46:49.551Z,11.70
2023-03-08T22:49:54.310Z,11.70
2023-03-08T22:52:57.618Z,11.70
2023-03-08T22:56:00.802Z,11.70
2023-03-08T22:59:04.597Z,11.60
2023-03-08T23:02:08.938Z,11.50
2023-03-08T23:05:15.688Z,11.50
2023-03-08T23:08:18.974Z,11.40
2023-03-08T23:11:22.406Z,11.30
2023-03-08T23:14:25.604Z,11.30
2023-03-08T23:17:28.775Z,11.30
2023-03-08T23:20:33.401Z,11.30
2023-03-08T23:23:37.403Z,11.30
2023-03-08T23:26:40.866Z,11.30
2023-03-08T23:29:44.036Z,11.40
2023-03-08T23:32:47.263Z,11.30
2023-03-08T23:35:51.901Z,11.30
2023-03-08T23:38:55.379Z,11.30
2023-03-08T23:41:58.644Z,11.30
2023-03-08T23:45:01.803Z,11.30
2023-03-08T23:48:05.097Z,11.20
2023-03-08T23:51:12.199Z,11.20
2023-03-08T23:54:15.467Z,11.10
2023-03-08T23:57:18.907Z,11.00
